sensor_id;sensor_type;location;lat;lon;timestamp;P1;durP1;ratioP1;P2;durP2;ratioP2
25125;SDS011;13106;50.808;5.670;2022-07-18T00:01:33;7.18;;;2.28;;
25125;SDS011;13106;50.808;5.670;2022-07-18T00:04:00;6.22;;;2.30;;
25125;SDS011;13106;50.808;5.670;2022-07-18T00:06:27;9.90;;;2.67;;
25125;SDS011;13106;50.808;5.670;2022-07-18T00:08:53;6.63;;;2.53;;
25125;SDS011;13106;50.808;5.670;2022-07-18T00:11:19;8.52;;;2.80;;
25125;SDS011;13106;50.808;5.670;2022-07-18T00:13:46;6.15;;;2.58;;
25125;SDS011;13106;50.808;5.670;2022-07-18T00:16:12;8.80;;;3.03;;
25125;SDS011;13106;50.808;5.670;2022-07-18T00:18:38;5.65;;;2.60;;
25125;SDS011;13106;50.808;5.670;2022-07-18T00:21:04;6.53;;;2.45;;
25125;SDS011;13106;50.808;5.670;2022-07-18T00:23:30;7.45;;;2.70;;
25125;SDS011;13106;50.808;5.670;2022-07-18T00:25:56;5.93;;;2.40;;
25125;SDS011;13106;50.808;5.670;2022-07-18T00:28:22;6.05;;;2.15;;
25125;SDS011;13106;50.808;5.670;2022-07-18T00:30:48;6.55;;;2.50;;
25125;SDS011;13106;50.808;5.670;2022-07-18T00:33:14;5.78;;;2.30;;
25125;SDS011;13106;50.808;5.670;2022-07-18T00:35:40;5.45;;;2.22;;
25125;SDS011;13106;50.808;5.670;2022-07-18T00:38:06;7.22;;;2.50;;
25125;SDS011;13106;50.808;5.670;2022-07-18T00:40:32;4.65;;;2.50;;
25125;SDS011;13106;50.808;5.670;2022-07-18T00:42:58;12.90;;;3.15;;
25125;SDS011;13106;50.808;5.670;2022-07-18T00:45:24;5.18;;;2.22;;
25125;SDS011;13106;50.808;5.670;2022-07-18T00:47:51;6.30;;;2.55;;
25125;SDS011;13106;50.808;5.670;2022-07-18T00:50:17;5.55;;;2.10;;
25125;SDS011;13106;50.808;5.670;2022-07-18T00:52:44;5.10;;;2.25;;
25125;SDS011;13106;50.808;5.670;2022-07-18T00:55:10;7.55;;;2.67;;
25125;SDS011;13106;50.808;5.670;2022-07-18T00:57:36;5.07;;;2.40;;
25125;SDS011;13106;50.808;5.670;2022-07-18T01:00:04;6.03;;;2.63;;
25125;SDS011;13106;50.808;5.670;2022-07-18T01:02:49;9.10;;;2.67;;
25125;SDS011;13106;50.808;5.670;2022-07-18T01:05:15;7.53;;;2.22;;
25125;SDS011;13106;50.808;5.670;2022-07-18T01:07:41;7.60;;;2.42;;
25125;SDS011;13106;50.808;5.670;2022-07-18T01:10:07;6.38;;;2.63;;
25125;SDS011;13106;50.808;5.670;2022-07-18T01:12:33;9.23;;;2.70;;
25125;SDS011;13106;50.808;5.670;2022-07-18T01:14:59;8.05;;;2.55;;
25125;SDS011;13106;50.808;5.670;2022-07-18T01:17:25;5.32;;;2.97;;
25125;SDS011;13106;50.808;5.670;2022-07-18T01:19:51;10.38;;;3.08;;
25125;SDS011;13106;50.808;5.670;2022-07-18T01:22:18;6.45;;;2.92;;
25125;SDS011;13106;50.808;5.670;2022-07-18T01:24:45;4.75;;;2.78;;
25125;SDS011;13106;50.808;5.670;2022-07-18T01:27:18;8.40;;;3.10;;
25125;SDS011;13106;50.808;5.670;2022-07-18T01:29:45;7.38;;;3.15;;
25125;SDS011;13106;50.808;5.670;2022-07-18T01:32:12;9.23;;;2.70;;
25125;SDS011;13106;50.808;5.670;2022-07-18T01:34:39;6.13;;;2.95;;
25125;SDS011;13106;50.808;5.670;2022-07-18T01:37:05;5.90;;;2.50;;
25125;SDS011;13106;50.808;5.670;2022-07-18T01:39:32;8.18;;;2.80;;
25125;SDS011;13106;50.808;5.670;2022-07-18T01:42:03;5.90;;;2.67;;
25125;SDS011;13106;50.808;5.670;2022-07-18T01:44:30;6.18;;;2.78;;
25125;SDS011;13106;50.808;5.670;2022-07-18T01:46:56;7.43;;;3.50;;
25125;SDS011;13106;50.808;5.670;2022-07-18T01:49:22;9.85;;;3.10;;
25125;SDS011;13106;50.808;5.670;2022-07-18T01:51:49;6.53;;;3.08;;
25125;SDS011;13106;50.808;5.670;2022-07-18T01:54:18;6.93;;;3.42;;
25125;SDS011;13106;50.808;5.670;2022-07-18T01:56:45;7.35;;;3.15;;
25125;SDS011;13106;50.808;5.670;2022-07-18T01:59:11;15.00;;;2.92;;
25125;SDS011;13106;50.808;5.670;2022-07-18T02:01:37;9.15;;;3.42;;
25125;SDS011;13106;50.808;5.670;2022-07-18T02:04:03;11.10;;;3.03;;
25125;SDS011;13106;50.808;5.670;2022-07-18T02:06:29;7.55;;;3.42;;
25125;SDS011;13106;50.808;5.670;2022-07-18T02:08:55;7.07;;;3.17;;
25125;SDS011;13106;50.808;5.670;2022-07-18T02:11:21;11.38;;;3.42;;
25125;SDS011;13106;50.808;5.670;2022-07-18T02:13:47;9.75;;;3.35;;
25125;SDS011;13106;50.808;5.670;2022-07-18T02:16:13;11.20;;;4.38;;
25125;SDS011;13106;50.808;5.670;2022-07-18T02:18:39;7.70;;;3.72;;
25125;SDS011;13106;50.808;5.670;2022-07-18T02:21:05;9.43;;;3.63;;
25125;SDS011;13106;50.808;5.670;2022-07-18T02:23:32;7.13;;;3.50;;
25125;SDS011;13106;50.808;5.670;2022-07-18T02:25:58;8.30;;;3.13;;
25125;SDS011;13106;50.808;5.670;2022-07-18T02:28:24;9.90;;;3.75;;
25125;SDS011;13106;50.808;5.670;2022-07-18T02:30:50;9.13;;;3.28;;
25125;SDS011;13106;50.808;5.670;2022-07-18T02:33:16;6.90;;;3.60;;
25125;SDS011;13106;50.808;5.670;2022-07-18T02:35:42;7.75;;;3.50;;
25125;SDS011;13106;50.808;5.670;2022-07-18T02:38:09;11.65;;;3.65;;
25125;SDS011;13106;50.808;5.670;2022-07-18T02:40:35;9.02;;;3.30;;
25125;SDS011;13106;50.808;5.670;2022-07-18T02:43:01;11.40;;;3.70;;
25125;SDS011;13106;50.808;5.670;2022-07-18T02:45:27;9.82;;;3.60;;
25125;SDS011;13106;50.808;5.670;2022-07-18T02:47:53;8.27;;;3.55;;
25125;SDS011;13106;50.808;5.670;2022-07-18T02:50:19;9.57;;;3.78;;
25125;SDS011;13106;50.808;5.670;2022-07-18T02:52:45;6.72;;;3.60;;
25125;SDS011;13106;50.808;5.670;2022-07-18T02:55:12;12.38;;;4.72;;
25125;SDS011;13106;50.808;5.670;2022-07-18T02:57:38;12.55;;;3.83;;
25125;SDS011;13106;50.808;5.670;2022-07-18T03:00:06;11.45;;;3.83;;
25125;SDS011;13106;50.808;5.670;2022-07-18T03:02:32;9.02;;;3.75;;
25125;SDS011;13106;50.808;5.670;2022-07-18T03:04:58;13.77;;;3.63;;
25125;SDS011;13106;50.808;5.670;2022-07-18T03:07:24;12.52;;;3.40;;
25125;SDS011;13106;50.808;5.670;2022-07-18T03:09:50;10.15;;;3.33;;
25125;SDS011;13106;50.808;5.670;2022-07-18T03:12:16;9.52;;;3.45;;
25125;SDS011;13106;50.808;5.670;2022-07-18T03:14:42;7.15;;;3.30;;
25125;SDS011;13106;50.808;5.670;2022-07-18T03:17:09;7.35;;;3.30;;
25125;SDS011;13106;50.808;5.670;2022-07-18T03:19:35;9.48;;;3.65;;
25125;SDS011;13106;50.808;5.670;2022-07-18T03:22:04;8.23;;;3.55;;
25125;SDS011;13106;50.808;5.670;2022-07-18T03:24:30;11.63;;;3.75;;
25125;SDS011;13106;50.808;5.670;2022-07-18T03:26:56;11.45;;;3.58;;
25125;SDS011;13106;50.808;5.670;2022-07-18T03:29:22;10.77;;;3.67;;
25125;SDS011;13106;50.808;5.670;2022-07-18T03:31:48;9.80;;;3.45;;
25125;SDS011;13106;50.808;5.670;2022-07-18T03:34:14;10.85;;;3.30;;
25125;SDS011;13106;50.808;5.670;2022-07-18T03:36:41;7.43;;;3.88;;
25125;SDS011;13106;50.808;5.670;2022-07-18T03:39:07;8.13;;;3.70;;
25125;SDS011;13106;50.808;5.670;2022-07-18T03:41:33;14.30;;;3.95;;
25125;SDS011;13106;50.808;5.670;2022-07-18T03:43:59;6.50;;;3.35;;
25125;SDS011;13106;50.808;5.670;2022-07-18T03:46:25;8.55;;;3.80;;
25125;SDS011;13106;50.808;5.670;2022-07-18T03:48:51;8.52;;;3.67;;
25125;SDS011;13106;50.808;5.670;2022-07-18T03:51:18;9.90;;;3.80;;
25125;SDS011;13106;50.808;5.670;2022-07-18T03:53:44;10.05;;;3.55;;
25125;SDS011;13106;50.808;5.670;2022-07-18T03:56:10;11.25;;;3.45;;
25125;SDS011;13106;50.808;5.670;2022-07-18T03:58:36;11.73;;;3.53;;
25125;SDS011;13106;50.808;5.670;2022-07-18T04:01:02;10.10;;;3.70;;
25125;SDS011;13106;50.808;5.670;2022-07-18T04:03:29;12.73;;;4.25;;
25125;SDS011;13106;50.808;5.670;2022-07-18T04:05:55;7.85;;;3.40;;
25125;SDS011;13106;50.808;5.670;2022-07-18T04:08:21;7.90;;;3.50;;
25125;SDS011;13106;50.808;5.670;2022-07-18T04:10:47;9.23;;;4.07;;
25125;SDS011;13106;50.808;5.670;2022-07-18T04:13:13;11.60;;;3.38;;
25125;SDS011;13106;50.808;5.670;2022-07-18T04:15:39;6.75;;;3.60;;
25125;SDS011;13106;50.808;5.670;2022-07-18T04:18:05;6.22;;;3.55;;
25125;SDS011;13106;50.808;5.670;2022-07-18T04:20:32;7.72;;;3.60;;
25125;SDS011;13106;50.808;5.670;2022-07-18T04:22:59;8.80;;;3.10;;
25125;SDS011;13106;50.808;5.670;2022-07-18T04:25:26;13.30;;;3.42;;
25125;SDS011;13106;50.808;5.670;2022-07-18T04:27:53;17.05;;;3.70;;
25125;SDS011;13106;50.808;5.670;2022-07-18T04:30:21;8.73;;;3.38;;
25125;SDS011;13106;50.808;5.670;2022-07-18T04:32:48;11.77;;;3.63;;
25125;SDS011;13106;50.808;5.670;2022-07-18T04:35:14;10.93;;;3.92;;
25125;SDS011;13106;50.808;5.670;2022-07-18T04:37:40;7.82;;;3.33;;
25125;SDS011;13106;50.808;5.670;2022-07-18T04:40:08;7.90;;;3.50;;
25125;SDS011;13106;50.808;5.670;2022-07-18T04:42:35;6.78;;;3.38;;
25125;SDS011;13106;50.808;5.670;2022-07-18T04:45:01;7.22;;;3.65;;
25125;SDS011;13106;50.808;5.670;2022-07-18T04:47:28;10.55;;;3.63;;
25125;SDS011;13106;50.808;5.670;2022-07-18T04:49:54;7.32;;;3.30;;
25125;SDS011;13106;50.808;5.670;2022-07-18T04:52:20;7.72;;;3.00;;
25125;SDS011;13106;50.808;5.670;2022-07-18T04:54:46;11.70;;;3.97;;
25125;SDS011;13106;50.808;5.670;2022-07-18T04:57:13;10.63;;;3.63;;
25125;SDS011;13106;50.808;5.670;2022-07-18T04:59:40;9.18;;;3.53;;
25125;SDS011;13106;50.808;5.670;2022-07-18T05:02:07;11.13;;;3.05;;
25125;SDS011;13106;50.808;5.670;2022-07-18T05:04:33;11.95;;;3.38;;
25125;SDS011;13106;50.808;5.670;2022-07-18T05:06:59;9.88;;;3.38;;
25125;SDS011;13106;50.808;5.670;2022-07-18T05:09:25;12.02;;;3.78;;
25125;SDS011;13106;50.808;5.670;2022-07-18T05:11:52;11.93;;;3.55;;
25125;SDS011;13106;50.808;5.670;2022-07-18T05:14:18;13.10;;;4.25;;
25125;SDS011;13106;50.808;5.670;2022-07-18T05:16:44;12.57;;;3.72;;
25125;SDS011;13106;50.808;5.670;2022-07-18T05:19:10;7.68;;;3.88;;
25125;SDS011;13106;50.808;5.670;2022-07-18T05:21:36;13.43;;;4.32;;
25125;SDS011;13106;50.808;5.670;2022-07-18T05:24:02;13.15;;;4.50;;
25125;SDS011;13106;50.808;5.670;2022-07-18T05:26:28;11.32;;;4.50;;
25125;SDS011;13106;50.808;5.670;2022-07-18T05:28:54;13.73;;;4.20;;
25125;SDS011;13106;50.808;5.670;2022-07-18T05:31:20;16.08;;;4.68;;
25125;SDS011;13106;50.808;5.670;2022-07-18T05:33:46;14.45;;;4.85;;
25125;SDS011;13106;50.808;5.670;2022-07-18T05:36:12;22.38;;;4.80;;
25125;SDS011;13106;50.808;5.670;2022-07-18T05:38:38;21.38;;;4.93;;
25125;SDS011;13106;50.808;5.670;2022-07-18T05:41:04;18.25;;;4.60;;
25125;SDS011;13106;50.808;5.670;2022-07-18T05:43:30;20.00;;;3.95;;
25125;SDS011;13106;50.808;5.670;2022-07-18T05:45:56;12.18;;;4.30;;
25125;SDS011;13106;50.808;5.670;2022-07-18T05:48:22;15.45;;;4.72;;
25125;SDS011;13106;50.808;5.670;2022-07-18T05:50:48;15.57;;;4.60;;
25125;SDS011;13106;50.808;5.670;2022-07-18T05:53:14;23.85;;;5.70;;
25125;SDS011;13106;50.808;5.670;2022-07-18T05:55:40;20.33;;;5.50;;
25125;SDS011;13106;50.808;5.670;2022-07-18T05:58:06;18.88;;;4.55;;
25125;SDS011;13106;50.808;5.670;2022-07-18T06:00:32;22.77;;;5.85;;
25125;SDS011;13106;50.808;5.670;2022-07-18T06:02:58;23.75;;;5.55;;
25125;SDS011;13106;50.808;5.670;2022-07-18T06:05:25;15.68;;;5.65;;
25125;SDS011;13106;50.808;5.670;2022-07-18T06:07:52;15.57;;;4.90;;
25125;SDS011;13106;50.808;5.670;2022-07-18T06:10:19;17.67;;;5.47;;
25125;SDS011;13106;50.808;5.670;2022-07-18T06:12:45;18.83;;;5.00;;
25125;SDS011;13106;50.808;5.670;2022-07-18T06:15:11;16.98;;;4.95;;
25125;SDS011;13106;50.808;5.670;2022-07-18T06:17:37;11.82;;;4.78;;
25125;SDS011;13106;50.808;5.670;2022-07-18T06:20:04;11.40;;;4.95;;
25125;SDS011;13106;50.808;5.670;2022-07-18T06:22:32;14.32;;;4.82;;
25125;SDS011;13106;50.808;5.670;2022-07-18T06:24:59;11.05;;;4.50;;
25125;SDS011;13106;50.808;5.670;2022-07-18T06:27:26;13.38;;;4.35;;
25125;SDS011;13106;50.808;5.670;2022-07-18T06:29:52;11.68;;;4.18;;
25125;SDS011;13106;50.808;5.670;2022-07-18T06:32:18;12.82;;;4.70;;
25125;SDS011;13106;50.808;5.670;2022-07-18T06:34:44;12.52;;;4.90;;
25125;SDS011;13106;50.808;5.670;2022-07-18T06:37:10;15.25;;;4.82;;
25125;SDS011;13106;50.808;5.670;2022-07-18T06:39:36;20.00;;;5.35;;
25125;SDS011;13106;50.808;5.670;2022-07-18T06:42:02;11.95;;;4.35;;
25125;SDS011;13106;50.808;5.670;2022-07-18T06:44:28;14.93;;;4.70;;
25125;SDS011;13106;50.808;5.670;2022-07-18T06:46:54;16.95;;;4.53;;
25125;SDS011;13106;50.808;5.670;2022-07-18T06:49:22;19.95;;;4.40;;
25125;SDS011;13106;50.808;5.670;2022-07-18T06:51:50;15.95;;;4.65;;
25125;SDS011;13106;50.808;5.670;2022-07-18T06:54:16;16.83;;;4.05;;
25125;SDS011;13106;50.808;5.670;2022-07-18T06:56:42;17.70;;;4.78;;
25125;SDS011;13106;50.808;5.670;2022-07-18T06:59:08;15.43;;;4.32;;
25125;SDS011;13106;50.808;5.670;2022-07-18T07:01:34;14.85;;;4.75;;
25125;SDS011;13106;50.808;5.670;2022-07-18T07:04:00;15.63;;;4.30;;
25125;SDS011;13106;50.808;5.670;2022-07-18T07:06:26;18.73;;;4.95;;
25125;SDS011;13106;50.808;5.670;2022-07-18T07:08:52;13.98;;;4.95;;
25125;SDS011;13106;50.808;5.670;2022-07-18T07:11:18;13.45;;;4.80;;
25125;SDS011;13106;50.808;5.670;2022-07-18T07:13:47;17.58;;;4.47;;
25125;SDS011;13106;50.808;5.670;2022-07-18T07:16:13;22.95;;;4.30;;
25125;SDS011;13106;50.808;5.670;2022-07-18T07:18:39;20.38;;;4.20;;
25125;SDS011;13106;50.808;5.670;2022-07-18T07:21:05;19.67;;;4.38;;
25125;SDS011;13106;50.808;5.670;2022-07-18T07:23:33;25.42;;;4.72;;
25125;SDS011;13106;50.808;5.670;2022-07-18T07:25:59;22.63;;;4.68;;
25125;SDS011;13106;50.808;5.670;2022-07-18T07:28:25;17.45;;;4.25;;
25125;SDS011;13106;50.808;5.670;2022-07-18T07:30:51;22.63;;;4.55;;
25125;SDS011;13106;50.808;5.670;2022-07-18T07:33:17;20.00;;;4.20;;
25125;SDS011;13106;50.808;5.670;2022-07-18T07:35:43;16.60;;;4.38;;
25125;SDS011;13106;50.808;5.670;2022-07-18T07:38:09;15.48;;;4.00;;
25125;SDS011;13106;50.808;5.670;2022-07-18T07:40:42;16.02;;;3.67;;
25125;SDS011;13106;50.808;5.670;2022-07-18T07:43:12;17.02;;;3.60;;
25125;SDS011;13106;50.808;5.670;2022-07-18T07:45:39;14.45;;;2.92;;
25125;SDS011;13106;50.808;5.670;2022-07-18T07:48:05;20.83;;;3.47;;
25125;SDS011;13106;50.808;5.670;2022-07-18T07:50:32;16.38;;;3.28;;
25125;SDS011;13106;50.808;5.670;2022-07-18T07:52:58;15.40;;;3.40;;
25125;SDS011;13106;50.808;5.670;2022-07-18T07:55:24;13.02;;;3.30;;
25125;SDS011;13106;50.808;5.670;2022-07-18T07:57:50;10.73;;;2.90;;
25125;SDS011;13106;50.808;5.670;2022-07-18T08:00:16;8.05;;;2.58;;
25125;SDS011;13106;50.808;5.670;2022-07-18T08:03:16;14.27;;;2.85;;
25125;SDS011;13106;50.808;5.670;2022-07-18T08:05:36;9.50;;;2.45;;
25125;SDS011;13106;50.808;5.670;2022-07-18T08:08:03;3.67;;;1.50;;
25125;SDS011;13106;50.808;5.670;2022-07-18T08:10:29;7.80;;;1.70;;
25125;SDS011;13106;50.808;5.670;2022-07-18T08:12:56;8.68;;;1.55;;
25125;SDS011;13106;50.808;5.670;2022-07-18T08:15:22;6.28;;;1.45;;
25125;SDS011;13106;50.808;5.670;2022-07-18T08:17:49;5.00;;;1.60;;
25125;SDS011;13106;50.808;5.670;2022-07-18T08:20:15;5.28;;;1.60;;
25125;SDS011;13106;50.808;5.670;2022-07-18T08:22:54;5.93;;;1.75;;
25125;SDS011;13106;50.808;5.670;2022-07-18T08:25:21;5.20;;;1.30;;
25125;SDS011;13106;50.808;5.670;2022-07-18T08:27:47;7.55;;;1.73;;
25125;SDS011;13106;50.808;5.670;2022-07-18T08:30:13;7.45;;;1.70;;
25125;SDS011;13106;50.808;5.670;2022-07-18T08:32:39;5.63;;;1.55;;
25125;SDS011;13106;50.808;5.670;2022-07-18T08:35:05;6.10;;;1.63;;
25125;SDS011;13106;50.808;5.670;2022-07-18T08:37:31;8.00;;;1.80;;
25125;SDS011;13106;50.808;5.670;2022-07-18T08:39:57;8.13;;;1.50;;
25125;SDS011;13106;50.808;5.670;2022-07-18T08:42:25;6.97;;;1.50;;
25125;SDS011;13106;50.808;5.670;2022-07-18T08:44:55;9.88;;;1.55;;
25125;SDS011;13106;50.808;5.670;2022-07-18T08:47:22;8.32;;;1.40;;
25125;SDS011;13106;50.808;5.670;2022-07-18T08:49:51;5.85;;;1.60;;
25125;SDS011;13106;50.808;5.670;2022-07-18T08:52:17;5.30;;;1.25;;
25125;SDS011;13106;50.808;5.670;2022-07-18T08:54:45;5.72;;;1.30;;
25125;SDS011;13106;50.808;5.670;2022-07-18T08:57:13;5.40;;;1.35;;
25125;SDS011;13106;50.808;5.670;2022-07-18T08:59:39;5.47;;;1.73;;
25125;SDS011;13106;50.808;5.670;2022-07-18T09:02:06;5.05;;;1.42;;
25125;SDS011;13106;50.808;5.670;2022-07-18T09:04:33;3.53;;;1.83;;
25125;SDS011;13106;50.808;5.670;2022-07-18T09:06:59;6.68;;;1.50;;
25125;SDS011;13106;50.808;5.670;2022-07-18T09:09:25;6.10;;;1.42;;
25125;SDS011;13106;50.808;5.670;2022-07-18T09:14:28;4.53;;;1.20;;
25125;SDS011;13106;50.808;5.670;2022-07-18T09:19:36;3.92;;;1.52;;
25125;SDS011;13106;50.808;5.670;2022-07-18T09:24:54;9.45;;;1.10;;
25125;SDS011;13106;50.808;5.670;2022-07-18T09:32:35;4.05;;;1.10;;
25125;SDS011;13106;50.808;5.670;2022-07-18T09:35:08;3.58;;;1.00;;
25125;SDS011;13106;50.808;5.670;2022-07-18T09:37:34;3.15;;;1.00;;
25125;SDS011;13106;50.808;5.670;2022-07-18T09:41:01;11.27;;;1.45;;
25125;SDS011;13106;50.808;5.670;2022-07-18T09:42:57;3.35;;;1.10;;
25125;SDS011;13106;50.808;5.670;2022-07-18T09:45:27;3.60;;;1.20;;
25125;SDS011;13106;50.808;5.670;2022-07-18T09:47:55;5.70;;;1.05;;
25125;SDS011;13106;50.808;5.670;2022-07-18T09:50:22;2.97;;;1.13;;
25125;SDS011;13106;50.808;5.670;2022-07-18T09:55:27;8.65;;;1.00;;
25125;SDS011;13106;50.808;5.670;2022-07-18T09:57:58;2.50;;;1.10;;
25125;SDS011;13106;50.808;5.670;2022-07-18T10:00:26;5.55;;;1.10;;
25125;SDS011;13106;50.808;5.670;2022-07-18T10:02:53;4.57;;;0.90;;
25125;SDS011;13106;50.808;5.670;2022-07-18T10:05:20;3.05;;;1.10;;
25125;SDS011;13106;50.808;5.670;2022-07-18T10:07:46;3.75;;;1.05;;
25125;SDS011;13106;50.808;5.670;2022-07-18T10:10:14;3.08;;;0.98;;
25125;SDS011;13106;50.808;5.670;2022-07-18T10:12:41;3.30;;;1.07;;
25125;SDS011;13106;50.808;5.670;2022-07-18T10:15:07;2.30;;;1.20;;
25125;SDS011;13106;50.808;5.670;2022-07-18T10:17:33;6.80;;;1.30;;
25125;SDS011;13106;50.808;5.670;2022-07-18T10:20:04;5.25;;;0.90;;
25125;SDS011;13106;50.808;5.670;2022-07-18T10:22:33;4.03;;;1.13;;
25125;SDS011;13106;50.808;5.670;2022-07-18T10:25:03;3.60;;;1.10;;
25125;SDS011;13106;50.808;5.670;2022-07-18T10:27:29;4.32;;;1.33;;
25125;SDS011;13106;50.808;5.670;2022-07-18T10:30:13;3.90;;;1.00;;
25125;SDS011;13106;50.808;5.670;2022-07-18T10:32:39;5.03;;;1.42;;
25125;SDS011;13106;50.808;5.670;2022-07-18T10:35:06;4.22;;;1.15;;
25125;SDS011;13106;50.808;5.670;2022-07-18T10:37:33;4.70;;;1.33;;
25125;SDS011;13106;50.808;5.670;2022-07-18T10:42:44;7.28;;;1.40;;
25125;SDS011;13106;50.808;5.670;2022-07-18T10:45:25;5.82;;;1.02;;
25125;SDS011;13106;50.808;5.670;2022-07-18T10:47:53;2.92;;;1.08;;
25125;SDS011;13106;50.808;5.670;2022-07-18T10:50:19;2.67;;;1.02;;
25125;SDS011;13106;50.808;5.670;2022-07-18T11:00:26;5.78;;;1.20;;
25125;SDS011;13106;50.808;5.670;2022-07-18T11:03:06;4.88;;;1.55;;
25125;SDS011;13106;50.808;5.670;2022-07-18T11:05:33;4.10;;;1.20;;
25125;SDS011;13106;50.808;5.670;2022-07-18T11:15:57;3.63;;;1.25;;
25125;SDS011;13106;50.808;5.670;2022-07-18T11:18:24;1.38;;;1.00;;
25125;SDS011;13106;50.808;5.670;2022-07-18T11:20:51;6.07;;;1.20;;
25125;SDS011;13106;50.808;5.670;2022-07-18T11:23:21;2.92;;;1.20;;
25125;SDS011;13106;50.808;5.670;2022-07-18T11:25:48;4.07;;;1.10;;
25125;SDS011;13106;50.808;5.670;2022-07-18T11:28:14;2.47;;;1.02;;
25125;SDS011;13106;50.808;5.670;2022-07-18T11:30:41;2.47;;;1.20;;
25125;SDS011;13106;50.808;5.670;2022-07-18T11:33:19;1.60;;;1.00;;
25125;SDS011;13106;50.808;5.670;2022-07-18T11:35:46;2.25;;;1.13;;
25125;SDS011;13106;50.808;5.670;2022-07-18T11:38:12;5.40;;;1.08;;
25125;SDS011;13106;50.808;5.670;2022-07-18T11:40:51;4.35;;;1.20;;
25125;SDS011;13106;50.808;5.670;2022-07-18T11:43:20;5.50;;;0.98;;
25125;SDS011;13106;50.808;5.670;2022-07-18T11:45:46;3.80;;;1.00;;
25125;SDS011;13106;50.808;5.670;2022-07-18T11:48:20;3.45;;;1.00;;
25125;SDS011;13106;50.808;5.670;2022-07-18T11:50:46;4.00;;;1.02;;
25125;SDS011;13106;50.808;5.670;2022-07-18T11:53:13;3.97;;;1.00;;
25125;SDS011;13106;50.808;5.670;2022-07-18T11:55:40;6.75;;;1.30;;
25125;SDS011;13106;50.808;5.670;2022-07-18T11:58:15;3.58;;;1.20;;
25125;SDS011;13106;50.808;5.670;2022-07-18T12:00:42;3.00;;;1.20;;
25125;SDS011;13106;50.808;5.670;2022-07-18T12:05:42;4.18;;;1.00;;
25125;SDS011;13106;50.808;5.670;2022-07-18T12:13:45;4.38;;;1.38;;
25125;SDS011;13106;50.808;5.670;2022-07-18T12:16:28;1.50;;;1.15;;
25125;SDS011;13106;50.808;5.670;2022-07-18T12:21:37;2.08;;;1.30;;
25125;SDS011;13106;50.808;5.670;2022-07-18T12:24:20;8.07;;;1.30;;
25125;SDS011;13106;50.808;5.670;2022-07-18T12:26:48;2.10;;;1.23;;
25125;SDS011;13106;50.808;5.670;2022-07-18T12:29:14;4.72;;;1.63;;
25125;SDS011;13106;50.808;5.670;2022-07-18T12:31:44;2.85;;;1.23;;
25125;SDS011;13106;50.808;5.670;2022-07-18T12:34:12;1.83;;;1.25;;
25125;SDS011;13106;50.808;5.670;2022-07-18T12:36:54;7.65;;;1.15;;
25125;SDS011;13106;50.808;5.670;2022-07-18T12:39:31;1.98;;;1.08;;
25125;SDS011;13106;50.808;5.670;2022-07-18T12:41:58;3.78;;;1.08;;
25125;SDS011;13106;50.808;5.670;2022-07-18T12:44:25;4.18;;;1.33;;
25125;SDS011;13106;50.808;5.670;2022-07-18T12:46:51;4.95;;;1.20;;
25125;SDS011;13106;50.808;5.670;2022-07-18T12:49:17;3.15;;;1.20;;
25125;SDS011;13106;50.808;5.670;2022-07-18T12:51:44;3.72;;;1.20;;
25125;SDS011;13106;50.808;5.670;2022-07-18T12:54:10;3.72;;;1.20;;
25125;SDS011;13106;50.808;5.670;2022-07-18T12:56:36;1.77;;;1.00;;
25125;SDS011;13106;50.808;5.670;2022-07-18T12:59:02;2.83;;;1.17;;
25125;SDS011;13106;50.808;5.670;2022-07-18T13:01:28;3.03;;;1.13;;
25125;SDS011;13106;50.808;5.670;2022-07-18T13:03:54;1.48;;;0.93;;
25125;SDS011;13106;50.808;5.670;2022-07-18T13:06:20;3.45;;;0.80;;
25125;SDS011;13106;50.808;5.670;2022-07-18T13:08:47;2.45;;;1.25;;
25125;SDS011;13106;50.808;5.670;2022-07-18T13:11:13;6.53;;;1.25;;
25125;SDS011;13106;50.808;5.670;2022-07-18T13:13:39;3.55;;;1.17;;
25125;SDS011;13106;50.808;5.670;2022-07-18T13:16:05;3.45;;;1.08;;
25125;SDS011;13106;50.808;5.670;2022-07-18T13:18:31;1.90;;;1.10;;
25125;SDS011;13106;50.808;5.670;2022-07-18T13:20:57;1.90;;;0.90;;
25125;SDS011;13106;50.808;5.670;2022-07-18T13:23:23;3.60;;;1.10;;
25125;SDS011;13106;50.808;5.670;2022-07-18T13:25:49;4.63;;;1.10;;
25125;SDS011;13106;50.808;5.670;2022-07-18T13:28:15;5.13;;;1.20;;
25125;SDS011;13106;50.808;5.670;2022-07-18T13:30:41;2.45;;;1.20;;
25125;SDS011;13106;50.808;5.670;2022-07-18T13:33:07;2.85;;;1.00;;
25125;SDS011;13106;50.808;5.670;2022-07-18T13:35:34;4.35;;;1.10;;
25125;SDS011;13106;50.808;5.670;2022-07-18T13:38:00;5.47;;;1.10;;
25125;SDS011;13106;50.808;5.670;2022-07-18T13:40:26;3.30;;;1.17;;
25125;SDS011;13106;50.808;5.670;2022-07-18T13:42:52;3.00;;;1.27;;
25125;SDS011;13106;50.808;5.670;2022-07-18T13:45:18;2.67;;;1.13;;
25125;SDS011;13106;50.808;5.670;2022-07-18T13:47:44;5.22;;;1.10;;
25125;SDS011;13106;50.808;5.670;2022-07-18T13:50:10;6.07;;;1.15;;
25125;SDS011;13106;50.808;5.670;2022-07-18T13:52:36;1.67;;;1.10;;
25125;SDS011;13106;50.808;5.670;2022-07-18T13:55:03;2.55;;;1.10;;
25125;SDS011;13106;50.808;5.670;2022-07-18T13:57:29;1.95;;;0.88;;
25125;SDS011;13106;50.808;5.670;2022-07-18T13:59:55;3.40;;;1.45;;
25125;SDS011;13106;50.808;5.670;2022-07-18T14:02:21;3.67;;;1.02;;
25125;SDS011;13106;50.808;5.670;2022-07-18T14:04:47;3.33;;;1.10;;
25125;SDS011;13106;50.808;5.670;2022-07-18T14:07:13;2.13;;;1.20;;
25125;SDS011;13106;50.808;5.670;2022-07-18T14:09:42;2.92;;;1.05;;
25125;SDS011;13106;50.808;5.670;2022-07-18T14:12:08;7.20;;;1.23;;
25125;SDS011;13106;50.808;5.670;2022-07-18T14:14:34;2.60;;;1.08;;
25125;SDS011;13106;50.808;5.670;2022-07-18T14:17:00;2.10;;;0.90;;
25125;SDS011;13106;50.808;5.670;2022-07-18T14:19:26;4.93;;;1.02;;
25125;SDS011;13106;50.808;5.670;2022-07-18T14:21:52;3.67;;;1.15;;
25125;SDS011;13106;50.808;5.670;2022-07-18T14:24:18;2.53;;;1.10;;
25125;SDS011;13106;50.808;5.670;2022-07-18T14:26:44;3.28;;;0.90;;
25125;SDS011;13106;50.808;5.670;2022-07-18T14:29:10;3.72;;;1.02;;
25125;SDS011;13106;50.808;5.670;2022-07-18T14:31:36;1.92;;;0.93;;
25125;SDS011;13106;50.808;5.670;2022-07-18T14:34:02;2.60;;;1.00;;
25125;SDS011;13106;50.808;5.670;2022-07-18T14:36:28;5.80;;;1.23;;
25125;SDS011;13106;50.808;5.670;2022-07-18T14:38:56;2.15;;;0.93;;
25125;SDS011;13106;50.808;5.670;2022-07-18T14:41:22;1.73;;;0.70;;
25125;SDS011;13106;50.808;5.670;2022-07-18T14:43:48;2.65;;;1.27;;
25125;SDS011;13106;50.808;5.670;2022-07-18T14:46:14;4.05;;;1.23;;
25125;SDS011;13106;50.808;5.670;2022-07-18T14:48:40;2.80;;;1.20;;
25125;SDS011;13106;50.808;5.670;2022-07-18T14:51:07;4.90;;;1.10;;
25125;SDS011;13106;50.808;5.670;2022-07-18T14:53:33;3.65;;;0.88;;
25125;SDS011;13106;50.808;5.670;2022-07-18T14:55:59;2.65;;;0.80;;
25125;SDS011;13106;50.808;5.670;2022-07-18T14:58:25;2.10;;;1.10;;
25125;SDS011;13106;50.808;5.670;2022-07-18T15:00:51;3.55;;;1.30;;
25125;SDS011;13106;50.808;5.670;2022-07-18T15:03:17;3.35;;;0.82;;
25125;SDS011;13106;50.808;5.670;2022-07-18T15:05:43;6.70;;;1.40;;
25125;SDS011;13106;50.808;5.670;2022-07-18T15:08:09;3.80;;;1.10;;
25125;SDS011;13106;50.808;5.670;2022-07-18T15:10:35;5.68;;;1.30;;
25125;SDS011;13106;50.808;5.670;2022-07-18T15:13:01;3.45;;;1.25;;
25125;SDS011;13106;50.808;5.670;2022-07-18T15:15:27;4.50;;;1.30;;
25125;SDS011;13106;50.808;5.670;2022-07-18T15:17:53;4.00;;;0.90;;
25125;SDS011;13106;50.808;5.670;2022-07-18T15:20:19;5.03;;;1.20;;
25125;SDS011;13106;50.808;5.670;2022-07-18T15:22:46;2.35;;;1.10;;
25125;SDS011;13106;50.808;5.670;2022-07-18T15:25:12;2.38;;;1.25;;
25125;SDS011;13106;50.808;5.670;2022-07-18T15:27:38;7.95;;;1.20;;